createdAt,value
2018-08-10T00:00:20.989Z,18.80
2018-08-10T00:02:52.506Z,18.80
2018-08-10T00:05:23.663Z,18.80
2018-08-10T00:07:55.419Z,18.90
2018-08-10T00:10:26.656Z,18.80
2018-08-10T00:12:58.041Z,18.80
2018-08-10T00:15:29.662Z,18.50
2018-08-10T00:18:00.847Z,18.30
2018-08-10T00:20:32.205Z,18.20
2018-08-10T00:23:03.404Z,18.10
2018-08-10T00:25:34.825Z,17.80
2018-08-10T00:28:07.402Z,17.70
2018-08-10T00:30:39.103Z,17.90
2018-08-10T00:33:10.420Z,18.00
2018-08-10T00:35:43.367Z,17.80
2018-08-10T00:38:14.778Z,17.90
2018-08-10T00:40:48.851Z,18.00
2018-08-10T00:43:20.194Z,18.00
2018-08-10T00:45:51.737Z,18.00
2018-08-10T00:48:22.976Z,18.00
2018-08-10T00:50:54.359Z,18.00
2018-08-10T00:53:25.729Z,18.00
2018-08-10T00:55:57.100Z,18.10
2018-08-10T00:58:28.540Z,18.10
2018-08-10T01:00:59.788Z,18.00
2018-08-10T01:03:31.118Z,18.10
2018-08-10T01:06:02.370Z,18.10
2018-08-10T01:08:33.753Z,18.00
2018-08-10T01:11:04.941Z,18.00
2018-08-10T01:13:36.437Z,17.90
2018-08-10T01:16:07.784Z,17.80
2018-08-10T01:18:39.273Z,17.70
2018-08-10T01:21:10.459Z,17.80
2018-08-10T01:23:42.133Z,17.80
2018-08-10T01:26:13.358Z,17.80
2018-08-10T01:28:44.819Z,17.50
2018-08-10T01:31:16.379Z,17.40
2018-08-10T01:33:48.013Z,17.50
2018-08-10T01:36:19.436Z,17.60
2018-08-10T01:38:50.700Z,17.50
2018-08-10T01:41:22.044Z,17.40
2018-08-10T01:43:53.521Z,17.40
2018-08-10T01:46:25.063Z,17.30
2018-08-10T01:48:56.765Z,17.30
2018-08-10T01:51:28.309Z,17.50
2018-08-10T01:53:59.824Z,17.50
2018-08-10T01:56:31.313Z,17.50
2018-08-10T01:59:02.843Z,17.50
2018-08-10T02:01:34.309Z,17.60
2018-08-10T02:04:05.944Z,17.60
2018-08-10T02:06:37.735Z,17.50
2018-08-10T02:09:11.796Z,17.60
2018-08-10T02:11:43.101Z,17.60
2018-08-10T02:14:14.695Z,17.40
2018-08-10T02:16:45.961Z,17.30
2018-08-10T02:19:17.742Z,17.30
2018-08-10T02:21:49.270Z,17.20
2018-08-10T02:24:20.733Z,17.00
2018-08-10T02:26:55.999Z,17.10
2018-08-10T02:29:27.530Z,17.20
2018-08-10T02:31:59.826Z,17.20
2018-08-10T02:34:31.395Z,17.20
2018-08-10T02:37:03.047Z,17.00
2018-08-10T02:39:34.574Z,17.10
2018-08-10T02:42:06.289Z,17.10
2018-08-10T02:44:37.860Z,17.00
2018-08-10T02:47:09.335Z,16.90
2018-08-10T02:49:40.745Z,16.80
2018-08-10T02:52:12.473Z,16.90
2018-08-10T02:54:45.340Z,16.80
2018-08-10T02:57:16.843Z,16.80
2018-08-10T02:59:49.790Z,16.80
2018-08-10T03:02:21.227Z,16.80
2018-08-10T03:04:52.663Z,16.70
2018-08-10T03:07:23.967Z,16.80
2018-08-10T03:09:55.590Z,16.80
2018-08-10T03:12:27.225Z,16.90
2018-08-10T03:14:58.808Z,16.80
2018-08-10T03:17:30.388Z,16.80
2018-08-10T03:23:15.373Z,16.80
2018-08-10T03:25:46.782Z,16.80
2018-08-10T03:28:18.456Z,16.90
2018-08-10T03:30:49.747Z,16.90
2018-08-10T03:33:22.284Z,16.90
2018-08-10T03:35:53.627Z,16.80
2018-08-10T03:38:24.987Z,16.80
2018-08-10T03:40:56.396Z,16.80
2018-08-10T03:43:28.110Z,16.80
2018-08-10T03:45:59.798Z,16.70
2018-08-10T03:48:31.620Z,16.60
2018-08-10T03:51:03.162Z,16.60
2018-08-10T03:53:34.746Z,16.60
2018-08-10T03:56:06.048Z,16.50
2018-08-10T03:58:37.485Z,16.30
2018-08-10T04:01:09.013Z,16.40
2018-08-10T04:03:40.384Z,16.40
2018-08-10T04:06:11.926Z,16.30
2018-08-10T04:08:43.390Z,16.30
2018-08-10T04:11:15.131Z,16.30
2018-08-10T04:13:47.031Z,16.00
2018-08-10T04:16:19.754Z,15.90
2018-08-10T04:18:51.322Z,16.00
2018-08-10T04:21:48.359Z,15.80
2018-08-10T04:24:20.007Z,15.70
2018-08-10T04:26:51.777Z,15.60
2018-08-10T04:29:23.176Z,15.60
2018-08-10T04:31:56.212Z,15.60
2018-08-10T04:34:28.061Z,15.60
2018-08-10T04:36:59.681Z,15.50
2018-08-10T04:39:31.396Z,15.60
2018-08-10T04:42:02.965Z,15.60
2018-08-10T04:44:34.640Z,15.80
2018-08-10T04:47:06.210Z,16.00
2018-08-10T04:49:37.792Z,15.90
2018-08-10T04:52:09.323Z,15.80
2018-08-10T04:54:40.971Z,15.90
2018-08-10T04:57:12.301Z,15.80
2018-08-10T04:59:43.658Z,15.90
2018-08-10T05:02:15.031Z,16.60
2018-08-10T05:04:48.837Z,17.30
2018-08-10T05:07:20.260Z,17.90
2018-08-10T05:09:51.730Z,18.80
2018-08-10T05:12:22.922Z,19.20
2018-08-10T05:14:54.291Z,19.40
2018-08-10T05:17:25.941Z,19.50
2018-08-10T05:19:57.563Z,19.70
2018-08-10T05:22:29.291Z,19.60
2018-08-10T05:25:00.793Z,19.30
2018-08-10T05:27:32.628Z,18.90
2018-08-10T05:30:04.197Z,19.10
2018-08-10T05:32:35.501Z,19.30
2018-08-10T05:35:07.733Z,19.40
2018-08-10T05:37:39.368Z,19.60
2018-08-10T05:40:11.905Z,19.80
2018-08-10T05:42:43.036Z,20.30
2018-08-10T05:45:14.473Z,20.20
2018-08-10T05:47:46.320Z,20.10
2018-08-10T05:50:17.824Z,19.90
2018-08-10T05:52:49.047Z,19.90
2018-08-10T05:55:20.327Z,20.70
2018-08-10T05:57:51.750Z,20.80
2018-08-10T06:00:23.173Z,20.70
2018-08-10T06:02:54.772Z,21.00
2018-08-10T06:05:26.418Z,21.10
2018-08-10T06:07:57.694Z,21.20
2018-08-10T06:10:29.105Z,21.40
2018-08-10T06:13:00.223Z,21.60
2018-08-10T06:15:31.968Z,21.50
2018-08-10T06:18:03.361Z,21.30
2018-08-10T06:20:34.931Z,21.50
2018-08-10T06:23:06.264Z,21.80
2018-08-10T06:25:37.636Z,22.10
2018-08-10T06:28:08.983Z,22.30
2018-08-10T06:30:40.386Z,22.10
2018-08-10T06:33:11.623Z,21.80
2018-08-10T06:35:43.258Z,22.60
2018-08-10T06:38:14.761Z,22.40
2018-08-10T06:40:46.038Z,23.00
2018-08-10T06:43:17.396Z,23.10
2018-08-10T06:45:49.336Z,23.40
2018-08-10T06:48:21.940Z,23.70
2018-08-10T06:50:53.946Z,24.00
2018-08-10T06:53:25.581Z,23.50
2018-08-10T06:55:57.097Z,23.00
2018-08-10T06:58:28.466Z,23.10
2018-08-10T07:01:00.121Z,23.10
2018-08-10T07:03:31.714Z,23.10
2018-08-10T07:06:03.108Z,22.90
2018-08-10T07:08:34.452Z,23.00
2018-08-10T07:11:06.246Z,23.40
2018-08-10T07:13:37.589Z,23.70
2018-08-10T07:16:09.121Z,24.10
2018-08-10T07:18:40.317Z,24.30
2018-08-10T07:21:11.653Z,24.60
2018-08-10T07:23:43.059Z,24.10
2018-08-10T07:26:14.498Z,24.00
2018-08-10T07:28:46.011Z,23.30
2018-08-10T07:31:17.765Z,23.50
2018-08-10T07:33:49.348Z,23.80
2018-08-10T07:36:21.329Z,24.80
2018-08-10T07:38:52.592Z,24.70
2018-08-10T07:41:23.969Z,23.90
2018-08-10T07:43:55.947Z,24.20
2018-08-10T07:46:27.729Z,23.80
2018-08-10T07:48:59.454Z,24.20
2018-08-10T07:51:30.917Z,24.90
2018-08-10T07:54:02.617Z,24.90
2018-08-10T07:56:33.948Z,24.40
2018-08-10T07:59:06.064Z,24.10
2018-08-10T08:01:37.473Z,24.30
2018-08-10T08:04:09.945Z,24.30
2018-08-10T08:06:41.391Z,24.20
2018-08-10T08:09:14.509Z,24.20
2018-08-10T08:11:46.212Z,24.30
2018-08-10T08:14:17.714Z,24.10
2018-08-10T08:16:49.218Z,24.80
2018-08-10T08:19:20.469Z,25.50
2018-08-10T08:22:11.317Z,25.30
2018-08-10T08:24:43.428Z,24.80
2018-08-10T08:27:16.115Z,24.90
2018-08-10T08:29:49.150Z,24.20
2018-08-10T08:32:20.495Z,24.10
2018-08-10T08:34:52.921Z,24.90
2018-08-10T08:37:24.097Z,25.40
2018-08-10T08:40:17.517Z,25.80
2018-08-10T08:42:49.892Z,25.80
2018-08-10T08:45:38.901Z,25.30
2018-08-10T08:48:10.004Z,24.70
2018-08-10T08:50:45.907Z,24.90
2018-08-10T08:53:17.674Z,24.70
2018-08-10T08:55:56.705Z,24.10
2018-08-10T08:58:28.804Z,24.40
2018-08-10T09:01:00.758Z,24.30
2018-08-10T09:03:42.012Z,23.60
2018-08-10T09:06:13.474Z,23.30
2018-08-10T09:08:54.439Z,24.40
2018-08-10T09:15:44.902Z,24.60
2018-08-10T09:18:16.260Z,24.90
2018-08-10T09:20:47.684Z,25.00
2018-08-10T09:23:18.986Z,24.20
2018-08-10T09:25:50.252Z,24.50
2018-08-10T09:28:21.516Z,25.00
2018-08-10T09:30:52.860Z,24.80
2018-08-10T09:33:24.190Z,25.30
2018-08-10T09:35:55.918Z,25.30
2018-08-10T09:38:27.237Z,25.20
2018-08-10T09:40:58.977Z,25.50
2018-08-10T09:43:30.269Z,25.90
2018-08-10T09:46:01.427Z,26.00
2018-08-10T09:48:33.089Z,26.00
2018-08-10T09:51:04.591Z,26.30
2018-08-10T09:53:35.924Z,26.40
2018-08-10T09:56:07.359Z,26.30
2018-08-10T10:01:58.581Z,26.40
2018-08-10T10:04:29.951Z,26.20
2018-08-10T10:07:01.735Z,25.50
2018-08-10T10:09:33.328Z,25.40
2018-08-10T10:12:04.871Z,25.20
2018-08-10T10:14:36.667Z,25.40
2018-08-10T10:17:08.089Z,25.40
2018-08-10T10:19:39.737Z,25.30
2018-08-10T10:22:11.194Z,25.90
2018-08-10T10:24:42.743Z,26.20
2018-08-10T10:27:14.474Z,26.60
2018-08-10T10:29:45.841Z,26.40
2018-08-10T10:32:17.304Z,26.40
2018-08-10T10:34:50.371Z,26.30
2018-08-10T10:37:22.404Z,26.20
2018-08-10T10:39:53.986Z,25.90
2018-08-10T10:42:25.689Z,25.80
2018-08-10T10:44:57.204Z,25.80
2018-08-10T10:47:29.019Z,25.90
2018-08-10T10:50:00.810Z,26.10
2018-08-10T10:52:32.085Z,26.30
2018-08-10T10:58:55.069Z,26.30
2018-08-10T11:01:26.584Z,25.60
2018-08-10T11:03:58.154Z,25.10
2018-08-10T11:06:29.931Z,24.90
2018-08-10T11:09:01.557Z,25.20
2018-08-10T11:11:45.329Z,25.00
2018-08-10T11:14:16.744Z,24.90
2018-08-10T11:16:48.149Z,25.20
2018-08-10T11:19:20.937Z,25.70
2018-08-10T11:21:52.110Z,25.60
2018-08-10T11:24:23.492Z,26.20
2018-08-10T11:26:59.897Z,26.30
2018-08-10T11:29:31.268Z,26.40
2018-08-10T11:32:02.501Z,26.30
2018-08-10T11:34:34.248Z,26.70
2018-08-10T11:37:06.214Z,26.20
2018-08-10T11:39:37.771Z,26.10
2018-08-10T11:42:10.121Z,25.90
2018-08-10T11:44:42.949Z,25.60
2018-08-10T11:47:31.557Z,25.00
2018-08-10T11:50:03.084Z,24.60
2018-08-10T11:52:34.519Z,24.70
2018-08-10T11:55:06.014Z,24.80
2018-08-10T11:57:37.463Z,25.10
2018-08-10T12:00:09.815Z,26.00
2018-08-10T12:02:41.370Z,26.60
2018-08-10T12:05:13.814Z,26.20
2018-08-10T12:07:45.356Z,26.00
2018-08-10T12:10:16.672Z,26.30
2018-08-10T12:12:48.012Z,26.70
2018-08-10T12:15:19.440Z,26.60
2018-08-10T12:17:50.957Z,26.60
2018-08-10T12:20:22.301Z,26.20
2018-08-10T12:22:54.745Z,25.40
2018-08-10T12:25:26.776Z,24.70
2018-08-10T12:27:58.478Z,24.40
2018-08-10T12:30:29.902Z,24.50
2018-08-10T12:33:01.538Z,23.80
2018-08-10T12:35:33.184Z,24.20
2018-08-10T12:38:05.484Z,24.60
2018-08-10T12:40:40.868Z,24.50
2018-08-10T12:43:12.079Z,24.70
2018-08-10T12:45:43.543Z,24.70
2018-08-10T12:48:14.873Z,24.70
2018-08-10T12:50:46.301Z,24.70
2018-08-10T12:53:18.051Z,24.70
2018-08-10T12:55:49.328Z,24.50
2018-08-10T12:58:20.791Z,24.40
2018-08-10T13:00:52.216Z,24.50
2018-08-10T13:03:23.553Z,24.40
2018-08-10T13:05:54.940Z,24.70
2018-08-10T13:08:26.684Z,25.40
2018-08-10T13:10:57.883Z,25.90
2018-08-10T13:13:29.531Z,26.70
2018-08-10T13:16:04.665Z,27.40
2018-08-10T13:18:36.223Z,27.60
2018-08-10T13:21:08.240Z,28.40
2018-08-10T13:23:39.782Z,28.70
2018-08-10T13:26:11.577Z,29.20
2018-08-10T13:28:43.119Z,29.10
2018-08-10T13:31:14.344Z,28.00
2018-08-10T13:33:46.049Z,27.00
2018-08-10T13:36:17.722Z,26.70
2018-08-10T13:38:49.475Z,26.40
2018-08-10T13:41:21.469Z,26.10
2018-08-10T13:43:52.826Z,25.90
2018-08-10T13:46:24.765Z,25.40
2018-08-10T13:48:56.334Z,25.10
2018-08-10T13:51:28.128Z,24.70
2018-08-10T13:53:59.592Z,24.20
2018-08-10T13:56:31.201Z,24.30
2018-08-10T13:59:03.592Z,24.40
2018-08-10T14:01:34.909Z,24.40
2018-08-10T14:04:06.651Z,24.80
2018-08-10T14:06:38.011Z,24.90
2018-08-10T14:09:12.173Z,24.60
2018-08-10T14:11:43.543Z,24.00
2018-08-10T14:14:15.498Z,24.00
2018-08-10T14:16:47.053Z,24.70
2018-08-10T14:19:18.410Z,24.90
2018-08-10T14:21:49.795Z,25.20
2018-08-10T14:24:20.952Z,25.00
2018-08-10T14:26:52.759Z,25.20
2018-08-10T14:29:24.037Z,24.80
2018-08-10T14:32:00.946Z,24.60
2018-08-10T14:34:32.436Z,24.50
2018-08-10T14:37:04.031Z,24.30
2018-08-10T14:39:35.562Z,24.10
2018-08-10T14:42:07.342Z,24.20
2018-08-10T14:44:38.713Z,24.30
2018-08-10T14:47:10.068Z,23.90
2018-08-10T14:49:41.387Z,23.80
2018-08-10T14:52:12.824Z,23.90
2018-08-10T14:54:43.967Z,23.80
2018-08-10T14:57:15.392Z,23.70
2018-08-10T14:59:46.578Z,23.40
2018-08-10T15:02:17.924Z,23.00
2018-08-10T15:04:51.186Z,22.80
2018-08-10T15:07:22.398Z,23.00
2018-08-10T15:09:55.085Z,23.20
2018-08-10T15:12:26.594Z,23.30
2018-08-10T15:14:58.429Z,23.20
2018-08-10T15:17:29.667Z,23.30
2018-08-10T15:20:01.425Z,23.60
2018-08-10T15:22:32.712Z,24.00
2018-08-10T15:25:04.212Z,24.20
2018-08-10T15:27:35.427Z,24.50
2018-08-10T15:30:07.141Z,24.70
2018-08-10T15:32:38.433Z,24.90
2018-08-10T15:35:09.856Z,24.90
2018-08-10T15:37:41.253Z,24.80
2018-08-10T15:40:14.293Z,24.70
2018-08-10T15:42:45.942Z,24.70
2018-08-10T15:45:18.054Z,24.80
2018-08-10T15:47:49.517Z,24.50
2018-08-10T15:50:20.966Z,24.40
2018-08-10T15:52:52.509Z,24.30
2018-08-10T15:55:23.893Z,24.00
2018-08-10T15:57:55.542Z,23.80
2018-08-10T16:00:27.322Z,23.60
2018-08-10T16:02:58.561Z,23.40
2018-08-10T16:05:29.971Z,23.50
2018-08-10T16:08:01.329Z,23.60
2018-08-10T16:10:32.845Z,23.70
2018-08-10T16:13:04.627Z,23.50
2018-08-10T16:15:36.049Z,23.50
2018-08-10T16:18:08.308Z,23.40
2018-08-10T16:20:39.546Z,23.30
2018-08-10T16:23:11.022Z,23.40
2018-08-10T16:25:42.420Z,23.60
2018-08-10T16:28:13.846Z,23.60
2018-08-10T16:30:45.238Z,23.70
2018-08-10T16:33:17.060Z,23.90
2018-08-10T16:35:48.749Z,24.20
2018-08-10T16:38:20.060Z,24.30
2018-08-10T16:40:51.316Z,24.40
2018-08-10T16:43:22.660Z,24.20
2018-08-10T16:45:53.888Z,24.30
2018-08-10T16:48:25.176Z,24.40
2018-08-10T16:50:57.726Z,24.50
2018-08-10T16:53:29.189Z,24.40
2018-08-10T16:56:00.467Z,24.30
2018-08-10T16:58:32.037Z,24.70
2018-08-10T17:01:03.181Z,24.60
2018-08-10T17:03:34.444Z,24.70
2018-08-10T17:06:05.777Z,24.30
2018-08-10T17:08:37.173Z,24.20
2018-08-10T17:11:08.582Z,24.40
2018-08-10T17:13:39.967Z,24.40
2018-08-10T17:16:11.522Z,24.20
2018-08-10T17:18:42.733Z,24.10
2018-08-10T17:21:14.542Z,24.10
2018-08-10T17:23:45.791Z,24.10
2018-08-10T17:26:17.533Z,24.00
2018-08-10T17:28:48.744Z,24.00
2018-08-10T17:31:20.392Z,23.80
2018-08-10T17:33:51.817Z,23.80
2018-08-10T17:36:23.439Z,23.60
2018-08-10T17:38:54.768Z,23.60
2018-08-10T17:41:27.106Z,23.70
2018-08-10T17:43:58.714Z,23.70
2018-08-10T17:46:30.125Z,23.50
2018-08-10T17:49:01.601Z,23.30
2018-08-10T17:51:32.828Z,23.10
2018-08-10T17:54:04.171Z,23.10
2018-08-10T17:56:35.477Z,23.00
2018-08-10T17:59:07.023Z,23.00
2018-08-10T18:01:38.309Z,23.00
2018-08-10T18:04:10.473Z,22.90
2018-08-10T18:06:41.990Z,22.60
2018-08-10T18:09:13.876Z,22.40
2018-08-10T18:11:45.418Z,22.30
2018-08-10T18:14:17.055Z,22.10
2018-08-10T18:16:48.463Z,21.80
2018-08-10T18:19:19.980Z,21.80
2018-08-10T18:21:51.323Z,21.80
2018-08-10T18:24:23.198Z,21.80
2018-08-10T18:26:54.488Z,21.70
2018-08-10T18:29:25.872Z,21.70
2018-08-10T18:31:58.832Z,21.50
2018-08-10T18:34:30.043Z,21.50
2018-08-10T18:37:02.250Z,21.40
2018-08-10T18:39:33.673Z,21.30
2018-08-10T18:42:24.443Z,21.20
2018-08-10T18:44:56.408Z,21.20
2018-08-10T18:47:27.700Z,21.10
2018-08-10T18:49:59.361Z,21.00
2018-08-10T18:52:31.380Z,20.90
2018-08-10T18:55:02.685Z,20.90
2018-08-10T18:57:34.222Z,20.70
2018-08-10T19:00:05.849Z,20.70
2018-08-10T19:02:37.194Z,20.70
2018-08-10T19:05:11.929Z,20.70
2018-08-10T19:07:43.272Z,20.60
2018-08-10T19:10:16.484Z,20.50
2018-08-10T19:12:48.120Z,20.50
2018-08-10T19:15:19.557Z,20.50
2018-08-10T19:17:51.165Z,20.40
2018-08-10T19:20:22.921Z,20.30
2018-08-10T19:22:54.236Z,20.40
2018-08-10T19:25:25.872Z,20.30
2018-08-10T19:27:57.163Z,20.30
2018-08-10T19:30:28.600Z,20.40
2018-08-10T19:32:59.878Z,20.50
2018-08-10T19:35:31.182Z,20.50
2018-08-10T19:38:02.433Z,20.50
2018-08-10T19:40:34.255Z,20.50
2018-08-10T19:43:05.517Z,20.40
2018-08-10T19:45:37.326Z,20.40
2018-08-10T19:48:08.830Z,20.50
2018-08-10T19:50:41.023Z,20.40
2018-08-10T19:53:12.417Z,20.30
2018-08-10T19:55:43.815Z,20.30
2018-08-10T19:58:15.317Z,20.30
2018-08-10T20:00:46.812Z,20.20
2018-08-10T20:03:18.522Z,20.20
2018-08-10T20:06:18.715Z,20.20
2018-08-10T20:08:49.975Z,20.20
2018-08-10T20:11:21.969Z,20.20
2018-08-10T20:13:53.418Z,20.20
2018-08-10T20:16:25.186Z,20.20
2018-08-10T20:18:56.716Z,20.10
2018-08-10T20:21:28.299Z,20.20
2018-08-10T20:23:59.658Z,20.20
2018-08-10T20:26:31.317Z,20.30
2018-08-10T20:29:02.569Z,20.40
2018-08-10T20:31:33.939Z,20.50
2018-08-10T20:34:05.230Z,20.50
2018-08-10T20:36:36.573Z,20.60
2018-08-10T20:39:11.588Z,20.60
2018-08-10T20:41:42.852Z,20.50
2018-08-10T20:44:15.114Z,20.70
2018-08-10T20:46:46.588Z,20.90
2018-08-10T20:49:18.037Z,21.00
2018-08-10T20:51:49.488Z,21.20
2018-08-10T20:54:21.029Z,21.20
2018-08-10T21:05:53.392Z,21.10
2018-08-10T21:08:24.777Z,21.10
2018-08-10T21:10:56.293Z,21.20
2018-08-10T21:13:27.676Z,21.30
2018-08-10T21:15:58.929Z,21.30
2018-08-10T21:18:30.231Z,21.30
2018-08-10T21:21:01.377Z,21.10
2018-08-10T21:23:32.892Z,21.20
2018-08-10T21:26:04.118Z,21.20
2018-08-10T21:28:35.544Z,21.30
2018-08-10T21:31:06.964Z,21.30
2018-08-10T21:38:02.476Z,21.30
2018-08-10T21:40:33.675Z,20.90
2018-08-10T21:47:11.101Z,20.80
2018-08-10T21:49:42.512Z,20.50
2018-08-10T21:52:13.921Z,20.50
2018-08-10T21:54:45.321Z,20.40
2018-08-10T21:57:16.571Z,20.50
2018-08-10T21:59:47.691Z,20.50
2018-08-10T22:02:39.637Z,20.50
2018-08-10T22:05:10.914Z,20.40
2018-08-10T22:07:42.526Z,20.40
2018-08-10T22:10:13.893Z,20.40
2018-08-10T22:12:49.543Z,20.20
2018-08-10T22:15:25.300Z,20.20
2018-08-10T22:18:01.202Z,20.10
2018-08-10T22:20:32.665Z,20.10
2018-08-10T22:23:03.956Z,19.90
2018-08-10T22:25:35.339Z,19.90
2018-08-10T22:28:06.619Z,19.90
2018-08-10T22:30:38.027Z,19.80
2018-08-10T22:33:09.438Z,19.80
2018-08-10T22:35:41.086Z,19.80
2018-08-10T22:38:12.762Z,19.80
2018-08-10T22:40:44.317Z,19.80
2018-08-10T22:43:15.741Z,19.70
2018-08-10T22:45:47.097Z,19.60
2018-08-10T22:48:18.573Z,19.60
2018-08-10T22:50:49.917Z,19.50
2018-08-10T22:53:21.380Z,19.60
2018-08-10T22:55:52.591Z,19.60
2018-08-10T22:58:24.028Z,19.60
2018-08-10T23:00:55.346Z,19.60
2018-08-10T23:03:26.678Z,19.50
2018-08-10T23:05:57.902Z,19.50
2018-08-10T23:08:29.303Z,19.30
2018-08-10T23:11:00.735Z,19.20
2018-08-10T23:13:32.317Z,18.90
2018-08-10T23:16:03.700Z,18.70
2018-08-10T23:18:34.966Z,18.60
2018-08-10T23:21:06.613Z,18.20
2018-08-10T23:23:37.906Z,18.20
2018-08-10T23:26:09.315Z,18.00
2018-08-10T23:28:41.176Z,18.00
2018-08-10T23:31:12.520Z,18.00
2018-08-10T23:33:43.969Z,17.80
2018-08-10T23:36:15.299Z,17.50
2018-08-10T23:38:46.921Z,17.30
2018-08-10T23:41:18.294Z,17.20
2018-08-10T23:43:49.729Z,17.10
2018-08-10T23:46:21.549Z,16.90
2018-08-10T23:48:52.921Z,16.70
2018-08-10T23:51:24.794Z,16.60
2018-08-10T23:53:56.218Z,16.50
2018-08-10T23:56:27.548Z,16.30
2018-08-10T23:58:59.009Z,16.30
